Flight Track Log - Related Links

Times and Time Zones

All times are in EDT time to prevent confusion due to time zone crossing. See the SKW6520 flight status page for this flight to view local times or setup timezone preferences in your user account.

Time Position Orientation Groundspeed Altitude Reporting Facility
EDT Latitude Longitude Course Direction KTS MPH feet Rate Location/Type
Fri 09:10:03 AM 42.0000 -87.9500 253° West 162 186 1,500  Level Chicago TRACON
Fri 09:11:03 AM 42.0333 -87.9833 323° Northwest 215 247 3,300 1,950 Climbing Chicago TRACON
Fri 09:12:03 AM 42.0500 -88.0833 283° West 271 312 5,400 2,450 Climbing Chicago TRACON
Fri 09:13:00 AM 41.8307 -88.4951 254° West  Level FlightAware Approximate
Fri 09:13:03 AM 42.0333 -88.1667 255° West 274 315 8,200  Level Chicago TRACON
Fri 09:13:42 AM 42.0003 -88.2347 237° Southwest 285 328 9,600 2,139 Climbing Chicago Center
Fri 09:14:00 AM 41.7974 -88.6462 254° West  Level FlightAware Approximate
Fri 09:14:44 AM 41.9614 -88.3322 242° Southwest 295 339 11,800  Level Chicago Center
Fri 09:15:00 AM 41.7638 -88.7972 253° West  Level FlightAware Approximate
Fri 09:15:46 AM 41.9208 -88.4322 241° Southwest 306 352 13,100  Level Chicago Center
Fri 09:16:48 AM 41.8700 -88.5294 235° Southwest 322 371 13,700 823 Climbing Chicago Center
Fri 09:17:50 AM 41.8094 -88.6311 231° Southwest 348 400 14,800 1,355 Climbing Chicago Center
Fri 09:18:52 AM 41.7472 -88.7647 238° Southwest 368 423 16,500 1,452 Climbing Chicago Center
Fri 09:19:54 AM 41.7194 -88.8947 254° West 366 421 17,800 1,258 Climbing Chicago Center
Fri 09:20:56 AM 41.6919 -89.0200 254° West 358 412 19,100 1,073 Climbing Chicago Center
Fri 09:21:57 AM 41.6625 -89.1519 253° West 367 422 20,000 1,073 Climbing Chicago Center
Fri 09:22:59 AM 41.6336 -89.2858 254° West 376 433 21,300 1,113 Climbing Chicago Center
Fri 09:24:01 AM 41.6033 -89.4192 253° West 376 433 22,300 823 Climbing Chicago Center
Fri 09:25:03 AM 41.5722 -89.5572 253° West 382 440 23,000 677 Climbing Chicago Center
Fri 09:26:05 AM 41.5372 -89.7189 254° West 378 435 23,700 677 Climbing Chicago Center
Fri 09:27:07 AM 41.5064 -89.8517 253° West 377 434 24,400 581 Climbing Chicago Center
Fri 09:28:09 AM 41.4750 -89.9872 253° West 382 440 24,900 484 Climbing Chicago Center
Fri 09:29:11 AM 41.4431 -90.1269 253° West 393 452 25,400 484 Climbing Chicago Center
Fri 09:30:13 AM 41.4103 -90.2678 253° West 399 459 25,900 532 Climbing Chicago Center
Fri 09:31:15 AM 41.3697 -90.4383 252° West 404 465 26,500 532 Climbing Chicago Center
Fri 09:32:17 AM 41.3375 -90.5808 253° West 404 465 27,000 484 Climbing Chicago Center
Fri 09:33:19 AM 41.2858 -90.7211 244° Southwest 433 498 27,500 484 Climbing Chicago Center
Fri 09:34:21 AM 41.2850 -90.8639 270° West 406 467 28,000 484 Climbing Chicago Center
Fri 09:35:23 AM 41.2794 -91.0103 267° West 398 458 28,500 484 Climbing Chicago Center
Fri 09:36:25 AM 41.2725 -91.1536 266° West 392 451 29,000 532 Climbing Chicago Center
Fri 09:37:27 AM 41.2633 -91.3264 266° West 393 452 29,600 532 Climbing Chicago Center
Fri 09:38:29 AM 41.2556 -91.4717 266° West 395 455 30,100 581 Climbing Chicago Center
Fri 09:39:31 AM 41.2478 -91.6167 266° West 396 456 30,800 581 Climbing Chicago Center
Fri 09:40:33 AM 41.2406 -91.7556 266° West 390 449 31,300 480 Climbing Chicago Center
Fri 09:41:36 AM 41.2158 -91.8942 257° West 396 456 31,800 339 Climbing Chicago Center
Fri 09:42:37 AM 41.1686 -92.0583 249° West 400 460 32,000 98 Climbing Chicago Center
Fri 09:43:39 AM 41.1292 -92.1992 250° West 408 470 32,000  Level Chicago Center
Fri 09:44:41 AM 41.0872 -92.3422 249° West 418 481 32,000  Level Chicago Center
Fri 09:45:43 AM 41.0447 -92.4875 249° West 424 488 32,000  Level Chicago Center
Fri 09:46:45 AM 40.9931 -92.6644 249° West 434 499 32,000  Level Chicago Center
Fri 09:47:47 AM 40.9494 -92.8108 249° West 435 501 32,000  Level Chicago Center
Fri 09:48:49 AM 40.9053 -92.9572 248° West 435 501 32,000  Level Chicago Center
Fri 09:49:51 AM 40.8622 -93.1047 249° West 435 501 32,000  Level Chicago Center
Fri 09:50:53 AM 40.8181 -93.2494 248° West 431 496 32,000  Level Chicago Center
Fri 09:51:55 AM 40.7722 -93.4222 251° West 422 486 32,000  Level Chicago Center
Fri 09:52:57 AM 40.7406 -93.5644 254° West 412 474 32,000  Level Chicago Center
Fri 09:53:51 AM 40.7156 -93.6778 254° West 410 472 32,000  Level Minneapolis Center
Fri 09:54:52 AM 40.6778 -93.8475 254° West 408 470 32,000  Level Minneapolis Center
Fri 09:55:54 AM 40.6422 -93.9872 252° West 406 467 32,000  Level Minneapolis Center
Fri 09:56:55 AM 40.5994 -94.1281 248° West 412 474 32,000  Level Minneapolis Center
Fri 09:57:57 AM 40.5450 -94.2614 242° Southwest 415 478 32,000  Level Minneapolis Center
Fri 09:58:59 AM 40.5075 -94.4053 251° West 420 483 32,000  Level Minneapolis Center
Fri 10:00:00 AM 40.5097 -94.5717 271° West 419 482 32,000  Level Minneapolis Center
Fri 10:01:02 AM 40.5203 -94.7233 275° West 417 480 32,000  Level Minneapolis Center
Fri 10:02:03 AM 40.5153 -94.8792 268° West 420 483 32,000 -49 Level Minneapolis Center
Fri 10:03:05 AM 40.5147 -95.0311 270° West 418 481 31,900 -1,355 Descending Minneapolis Center
Fri 10:04:07 AM 40.5453 -95.1747 286° West 408 470 29,200 -3,060 Descending Minneapolis Center
Fri 10:04:45 AM 40.5789 -95.2822 292° West 436 502 26,800 -3,536 Descending Minneapolis Center
Fri 10:05:03 AM 40.5867 -95.3308 282° West 443 510 25,900 -2,965 Descending Minneapolis Center
Fri 10:06:10 AM 40.6144 -95.5181 281° West 440 506 22,600 -3,071 Descending Minneapolis Center
Fri 10:07:10 AM 40.6469 -95.6531 288° West 401 461 19,400 -3,074 Descending Minneapolis Center
Fri 10:08:11 AM 40.6731 -95.7931 284° West 385 443 16,400 -2,832 Descending Minneapolis Center
Fri 10:09:15 AM 40.6967 -95.9361 282° West 391 450 13,500 -2,619 Descending Minneapolis Center
Fri 10:10:17 AM 40.7219 -96.0681 284° West 383 441 10,900 -1,729 Descending Minneapolis Center
Fri 10:11:13 AM 40.7397 -96.1675 283° West 280 322 10,100 -658 Descending Minneapolis Center
Fri 10:11:30 AM 40.7414 -96.1739 289° West 337 388 10,100 -1,909 Level Minneapolis Center
Fri 10:12:19 AM 40.7569 -96.2731 282° West 271 312 8,000 -1,914 Descending Minneapolis Center
Fri 10:13:26 AM 40.7761 -96.3783 284° West 254 292 6,400 -1,426 Descending Minneapolis Center
Fri 10:14:21 AM 40.7892 -96.4567 282° West 244 281 5,100 -1,371 Descending Minneapolis Center
Fri 10:14:36 AM 40.7992 -96.4856 295° West 250 288 4,800 -1,364 Descending Minneapolis Center
Fri 10:15:27 AM 40.8078 -96.5536 280° West 266 306 3,600 -1,019 Descending Minneapolis Center
Fri 10:16:22 AM 40.8519 -96.6261 309° West 260 299 3,000 -500 Descending Minneapolis Center
Fri 10:16:39 AM 40.8706 -96.6469 320° Northwest 257 296 3,000  Level Minneapolis Center

Login

Don't have an account? Register now (free) for customized features, flight alerts, and more!